createdAt,value
2019-05-25T00:01:09.256Z,18.40
2019-05-25T00:03:40.022Z,17.85
2019-05-25T00:06:10.805Z,17.25
2019-05-25T00:08:41.695Z,18.12
2019-05-25T00:11:12.452Z,15.68
2019-05-25T00:13:43.804Z,15.32
2019-05-25T00:16:14.609Z,14.03
2019-05-25T00:18:45.300Z,12.23
2019-05-25T00:21:16.044Z,12.98
2019-05-25T00:23:46.723Z,11.80
2019-05-25T00:26:17.514Z,11.97
2019-05-25T00:28:48.244Z,11.70
2019-05-25T00:31:19.147Z,11.38
2019-05-25T00:33:49.818Z,10.98
2019-05-25T00:36:20.539Z,11.00
2019-05-25T00:38:51.677Z,9.50
2019-05-25T00:41:22.292Z,10.30
2019-05-25T00:43:53.075Z,10.00
2019-05-25T00:46:23.767Z,9.85
2019-05-25T00:48:54.776Z,9.50
2019-05-25T00:51:26.290Z,8.85
2019-05-25T00:53:57.606Z,9.70
2019-05-25T00:56:28.434Z,9.10
2019-05-25T00:58:59.781Z,9.18
2019-05-25T01:01:32.179Z,9.13
2019-05-25T01:04:07.214Z,9.20
2019-05-25T01:06:38.842Z,8.78
2019-05-25T01:09:10.216Z,9.03
2019-05-25T01:11:41.175Z,9.58
2019-05-25T01:14:13.131Z,8.33
2019-05-25T01:16:44.095Z,8.10
2019-05-25T01:19:14.866Z,8.70
2019-05-25T01:21:45.652Z,8.45
2019-05-25T01:24:16.436Z,8.53
2019-05-25T01:26:47.298Z,8.20
2019-05-25T01:29:18.180Z,8.23
2019-05-25T01:31:48.981Z,8.15
2019-05-25T01:34:19.851Z,8.45
2019-05-25T01:36:50.932Z,8.28
2019-05-25T01:39:21.821Z,9.35
2019-05-25T01:42:11.645Z,8.75
2019-05-25T01:44:42.726Z,9.65
2019-05-25T01:47:13.521Z,9.20
2019-05-25T01:49:44.299Z,8.33
2019-05-25T01:52:15.074Z,9.43
2019-05-25T01:54:58.971Z,9.30
2019-05-25T01:57:18.082Z,9.70
2019-05-25T01:59:48.859Z,9.13
2019-05-25T02:02:19.683Z,8.95
2019-05-25T02:04:50.500Z,8.73
2019-05-25T02:07:21.461Z,9.38
2019-05-25T02:09:52.444Z,9.58
2019-05-25T02:12:23.103Z,9.48
2019-05-25T02:14:53.874Z,8.18
2019-05-25T02:17:24.754Z,8.78
2019-05-25T02:19:55.513Z,10.03
2019-05-25T02:22:26.326Z,8.88
2019-05-25T02:24:56.969Z,9.20
2019-05-25T02:27:27.760Z,8.90
2019-05-25T02:29:59.074Z,9.25
2019-05-25T02:32:30.182Z,9.58
2019-05-25T02:35:00.938Z,8.95
2019-05-25T02:37:32.371Z,8.05
2019-05-25T02:40:03.047Z,8.73
2019-05-25T02:42:33.947Z,9.30
2019-05-25T02:45:05.107Z,9.38
2019-05-25T02:47:35.984Z,8.63
2019-05-25T02:50:09.208Z,8.55
2019-05-25T02:52:39.998Z,8.33
2019-05-25T02:55:13.275Z,9.25
2019-05-25T02:57:44.072Z,8.18
2019-05-25T03:00:15.055Z,9.13
2019-05-25T03:02:45.806Z,9.18
2019-05-25T03:05:17.438Z,8.83
2019-05-25T03:07:48.295Z,8.43
2019-05-25T03:10:19.148Z,8.68
2019-05-25T03:12:49.831Z,9.70
2019-05-25T03:15:20.704Z,8.70
2019-05-25T03:17:51.463Z,9.33
2019-05-25T03:20:22.154Z,8.35
2019-05-25T03:22:53.045Z,8.55
2019-05-25T03:25:23.718Z,8.15
2019-05-25T03:27:54.409Z,9.35
2019-05-25T03:30:28.144Z,8.45
2019-05-25T03:32:59.166Z,7.95
2019-05-25T03:35:29.904Z,7.78
2019-05-25T03:38:00.578Z,8.13
2019-05-25T03:40:31.464Z,7.47
2019-05-25T03:43:02.304Z,8.43
2019-05-25T03:45:36.284Z,8.55
2019-05-25T03:48:07.117Z,7.87
2019-05-25T03:50:38.018Z,8.48
2019-05-25T03:53:08.789Z,8.50
2019-05-25T03:55:39.556Z,8.45
2019-05-25T03:58:10.238Z,9.08
2019-05-25T04:00:41.185Z,8.08
2019-05-25T04:03:12.097Z,8.45
2019-05-25T04:05:42.962Z,8.28
2019-05-25T04:08:14.283Z,9.65
2019-05-25T04:10:45.269Z,8.23
2019-05-25T04:13:16.193Z,8.48
2019-05-25T04:15:47.127Z,8.50
2019-05-25T04:18:19.606Z,9.43
2019-05-25T04:20:50.506Z,8.45
2019-05-25T04:23:21.345Z,8.50
2019-05-25T04:25:53.439Z,8.83
2019-05-25T04:28:24.247Z,8.48
2019-05-25T04:30:55.083Z,8.33
2019-05-25T04:33:25.861Z,10.08
2019-05-25T04:35:56.743Z,8.53
2019-05-25T04:38:27.455Z,9.90
2019-05-25T04:40:58.260Z,9.43
2019-05-25T04:43:29.118Z,8.20
2019-05-25T04:46:00.101Z,9.48
2019-05-25T04:48:31.189Z,8.18
2019-05-25T04:51:02.072Z,9.05
2019-05-25T04:53:32.888Z,9.18
2019-05-25T04:56:03.831Z,9.28
2019-05-25T04:58:34.614Z,9.25
2019-05-25T05:01:05.402Z,8.45
2019-05-25T05:03:36.313Z,9.88
2019-05-25T05:06:07.080Z,8.73
2019-05-25T05:08:45.104Z,8.70
2019-05-25T05:11:16.018Z,8.20
2019-05-25T05:13:46.787Z,8.68
2019-05-25T05:16:17.763Z,8.25
2019-05-25T05:18:48.795Z,8.30
2019-05-25T05:21:20.151Z,8.58
2019-05-25T05:23:51.161Z,8.08
2019-05-25T05:26:21.946Z,9.85
2019-05-25T05:28:52.813Z,9.13
2019-05-25T05:31:23.984Z,9.05
2019-05-25T05:33:57.714Z,9.18
2019-05-25T05:38:58.340Z,8.98
2019-05-25T05:41:31.151Z,8.05
2019-05-25T05:44:01.614Z,8.70
2019-05-25T05:46:32.343Z,8.33
2019-05-25T05:49:03.141Z,8.88
2019-05-25T05:51:37.513Z,8.95
2019-05-25T05:54:08.308Z,8.95
2019-05-25T05:56:40.372Z,9.18
2019-05-25T05:59:11.327Z,9.00
2019-05-25T06:01:42.144Z,9.13
2019-05-25T06:04:13.057Z,9.45
2019-05-25T06:06:43.878Z,9.78
2019-05-25T06:09:14.800Z,9.65
2019-05-25T06:11:45.456Z,8.83
2019-05-25T06:14:16.512Z,8.85
2019-05-25T06:16:47.389Z,8.55
2019-05-25T06:19:18.100Z,9.33
2019-05-25T06:21:48.982Z,9.95
2019-05-25T06:24:19.776Z,8.35
2019-05-25T06:26:50.552Z,9.15
2019-05-25T06:29:21.459Z,9.48
2019-05-25T06:31:52.262Z,9.33
2019-05-25T06:34:23.177Z,9.90
2019-05-25T06:36:54.045Z,8.60
2019-05-25T06:39:25.012Z,8.98
2019-05-25T06:41:55.810Z,9.78
2019-05-25T06:44:26.735Z,9.58
2019-05-25T06:46:57.742Z,10.18
2019-05-25T06:49:28.532Z,8.83
2019-05-25T06:51:59.294Z,9.65
2019-05-25T06:54:30.117Z,9.30
2019-05-25T06:57:00.862Z,8.60
2019-05-25T06:59:31.663Z,8.48
2019-05-25T07:02:02.619Z,8.55
2019-05-25T07:04:33.649Z,9.20
2019-05-25T07:07:04.586Z,9.25
2019-05-25T07:09:35.458Z,9.65
2019-05-25T07:12:06.130Z,10.05
2019-05-25T07:14:38.044Z,9.23
2019-05-25T07:17:10.689Z,9.15
2019-05-25T07:19:41.566Z,8.38
2019-05-25T07:22:12.338Z,8.40
2019-05-25T07:24:44.906Z,9.58
2019-05-25T07:27:15.850Z,8.33
2019-05-25T07:29:46.784Z,9.53
2019-05-25T07:32:17.533Z,9.50
2019-05-25T07:34:48.708Z,8.20
2019-05-25T07:37:20.127Z,9.05
2019-05-25T07:39:50.888Z,8.93
2019-05-25T07:42:21.850Z,8.78
2019-05-25T07:44:52.642Z,8.00
2019-05-25T07:47:23.429Z,8.60
2019-05-25T07:49:54.131Z,8.55
2019-05-25T07:52:25.579Z,8.20
2019-05-25T07:54:56.696Z,7.60
2019-05-25T07:57:28.697Z,8.20
2019-05-25T07:59:59.741Z,8.35
2019-05-25T08:02:30.624Z,7.55
2019-05-25T08:05:01.397Z,7.72
2019-05-25T08:07:32.170Z,8.08
2019-05-25T08:10:02.530Z,7.80
2019-05-25T08:12:33.326Z,8.40
2019-05-25T08:15:04.115Z,8.08
2019-05-25T08:17:35.029Z,8.15
2019-05-25T08:20:08.170Z,7.75
2019-05-25T08:22:39.011Z,7.10
2019-05-25T08:25:10.092Z,7.75
2019-05-25T08:27:40.846Z,7.60
2019-05-25T08:30:12.053Z,7.78
2019-05-25T08:32:42.852Z,7.28
2019-05-25T08:35:13.754Z,7.45
2019-05-25T08:37:44.546Z,8.20
2019-05-25T08:40:15.230Z,8.30
2019-05-25T08:42:46.014Z,7.70
2019-05-25T08:45:16.917Z,7.80
2019-05-25T08:47:47.770Z,7.40
2019-05-25T08:50:18.480Z,7.90
2019-05-25T08:52:49.344Z,7.05
2019-05-25T08:55:20.319Z,7.55
2019-05-25T08:57:51.499Z,7.58
2019-05-25T09:00:22.339Z,7.75
2019-05-25T09:02:53.348Z,8.58
2019-05-25T09:05:24.080Z,6.97
2019-05-25T09:07:54.924Z,6.95
2019-05-25T09:10:26.038Z,6.83
2019-05-25T09:12:56.797Z,7.53
2019-05-25T09:15:27.585Z,6.90
2019-05-25T09:17:58.730Z,6.92
2019-05-25T09:20:29.557Z,6.53
2019-05-25T09:23:00.439Z,7.58
2019-05-25T09:25:31.088Z,7.03
2019-05-25T09:28:01.870Z,7.62
2019-05-25T09:30:32.727Z,7.95
2019-05-25T09:33:03.504Z,7.15
2019-05-25T09:35:34.314Z,7.65
2019-05-25T09:38:05.181Z,7.90
2019-05-25T09:40:37.126Z,7.53
2019-05-25T09:43:08.004Z,7.78
2019-05-25T09:45:38.708Z,7.37
2019-05-25T09:48:09.450Z,7.50
2019-05-25T09:50:40.162Z,7.37
2019-05-25T09:53:10.951Z,7.85
2019-05-25T09:55:41.710Z,7.55
2019-05-25T09:58:12.555Z,7.67
2019-05-25T10:00:43.297Z,8.05
2019-05-25T10:03:14.062Z,8.00
2019-05-25T10:05:44.840Z,7.33
2019-05-25T10:08:15.722Z,7.78
2019-05-25T10:10:46.524Z,8.25
2019-05-25T10:13:17.315Z,7.75
2019-05-25T10:15:48.170Z,8.10
2019-05-25T10:18:18.967Z,8.83
2019-05-25T10:20:49.604Z,7.80
2019-05-25T10:23:20.281Z,8.18
2019-05-25T10:25:51.533Z,9.08
2019-05-25T10:28:25.253Z,8.48
2019-05-25T10:30:56.183Z,8.63
2019-05-25T10:33:26.973Z,8.75
2019-05-25T10:35:57.645Z,9.48
2019-05-25T10:38:28.557Z,9.48
2019-05-25T10:40:59.541Z,8.78
2019-05-25T10:43:32.366Z,9.53
2019-05-25T10:46:05.533Z,9.28
2019-05-25T10:48:36.854Z,9.18
2019-05-25T10:51:08.992Z,9.20
2019-05-25T10:53:40.303Z,9.53
2019-05-25T10:56:10.959Z,8.38
2019-05-25T10:58:42.503Z,8.75
2019-05-25T11:01:13.474Z,8.95
2019-05-25T11:03:44.353Z,8.98
2019-05-25T11:06:17.807Z,9.48
2019-05-25T11:08:49.060Z,10.20
2019-05-25T11:11:20.253Z,10.58
2019-05-25T11:13:50.988Z,11.65
2019-05-25T11:16:21.793Z,12.30
2019-05-25T11:18:53.281Z,12.15
2019-05-25T11:21:23.995Z,13.03
2019-05-25T11:23:54.788Z,12.73
2019-05-25T11:26:25.884Z,13.48
2019-05-25T11:28:56.818Z,15.23
2019-05-25T11:31:27.579Z,13.83
2019-05-25T11:33:58.286Z,14.05
2019-05-25T11:36:29.179Z,13.50
2019-05-25T11:39:03.760Z,14.35
2019-05-25T11:41:35.206Z,15.30
2019-05-25T11:44:16.789Z,14.93
2019-05-25T11:46:48.829Z,14.55
2019-05-25T11:49:22.492Z,15.10
2019-05-25T11:51:52.085Z,15.23
2019-05-25T11:54:23.006Z,13.70
2019-05-25T11:56:53.771Z,14.68
2019-05-25T11:59:24.515Z,16.20
2019-05-25T12:01:55.197Z,15.93
2019-05-25T12:04:25.869Z,15.10
2019-05-25T12:06:56.674Z,14.73
2019-05-25T12:09:27.761Z,15.40
2019-05-25T12:11:58.455Z,15.75
2019-05-25T12:14:29.626Z,15.35
2019-05-25T12:17:00.321Z,15.20
2019-05-25T12:19:30.986Z,15.13
2019-05-25T12:22:01.820Z,14.05
2019-05-25T12:24:32.497Z,14.85
2019-05-25T12:27:03.187Z,14.87
2019-05-25T12:29:35.801Z,14.90
2019-05-25T12:32:06.066Z,15.00
2019-05-25T12:34:36.747Z,16.35
2019-05-25T12:37:07.427Z,17.35
2019-05-25T12:39:38.131Z,17.55
2019-05-25T12:42:08.937Z,18.12
2019-05-25T12:44:39.834Z,17.15
2019-05-25T12:47:10.714Z,17.23
2019-05-25T12:49:50.548Z,18.52
2019-05-25T12:52:14.584Z,17.35
2019-05-25T12:54:45.434Z,17.82
2019-05-25T12:57:16.577Z,18.30
2019-05-25T12:59:50.072Z,15.90
2019-05-25T13:02:21.318Z,16.75
2019-05-25T13:04:52.464Z,16.50
2019-05-25T13:07:23.354Z,15.30
2019-05-25T13:09:54.147Z,14.85
2019-05-25T13:12:25.637Z,15.35
2019-05-25T13:14:56.527Z,15.55
2019-05-25T13:17:46.709Z,15.25
2019-05-25T13:20:17.864Z,14.45
2019-05-25T13:22:48.752Z,14.55
2019-05-25T13:25:19.523Z,14.10
2019-05-25T13:27:50.338Z,14.85
2019-05-25T13:30:21.133Z,15.15
2019-05-25T13:32:52.017Z,16.27
2019-05-25T13:35:22.770Z,15.30
2019-05-25T13:37:53.664Z,14.70
2019-05-25T13:40:24.546Z,15.00
2019-05-25T13:42:55.431Z,15.23
2019-05-25T13:45:28.054Z,13.98
2019-05-25T13:47:58.561Z,13.95
2019-05-25T13:50:29.477Z,15.70
2019-05-25T13:53:00.366Z,14.38
2019-05-25T13:55:31.259Z,14.73
2019-05-25T13:58:02.083Z,13.90
2019-05-25T14:00:32.873Z,12.55
2019-05-25T14:03:03.649Z,11.57
2019-05-25T14:05:34.524Z,11.18
2019-05-25T14:08:05.436Z,11.50
2019-05-25T14:10:36.214Z,10.65
2019-05-25T14:13:06.991Z,11.12
2019-05-25T14:15:37.763Z,11.12
2019-05-25T14:18:08.547Z,11.18
2019-05-25T14:20:39.548Z,9.95
2019-05-25T14:23:10.213Z,10.65
2019-05-25T14:25:41.015Z,9.30
2019-05-25T14:28:11.673Z,10.58
2019-05-25T14:30:42.507Z,11.15
2019-05-25T14:33:13.165Z,9.75
2019-05-25T14:35:44.212Z,9.70
2019-05-25T14:38:15.318Z,9.53
2019-05-25T14:40:46.104Z,9.23
2019-05-25T14:43:17.138Z,9.05
2019-05-25T14:45:47.982Z,9.68
2019-05-25T14:48:18.748Z,9.33
2019-05-25T14:50:49.560Z,9.83
2019-05-25T14:53:21.381Z,10.65
2019-05-25T14:55:52.370Z,8.80
2019-05-25T14:58:23.271Z,8.95
2019-05-25T15:00:54.268Z,9.55
2019-05-25T15:03:25.663Z,9.65
2019-05-25T15:05:56.529Z,9.48
2019-05-25T15:08:27.348Z,9.88
2019-05-25T15:10:58.240Z,9.08
2019-05-25T15:13:29.051Z,9.25
2019-05-25T15:15:59.828Z,9.50
2019-05-25T15:18:30.603Z,10.30
2019-05-25T15:21:01.477Z,9.58
2019-05-25T15:23:32.732Z,9.00
2019-05-25T15:26:03.703Z,9.65
2019-05-25T15:28:34.670Z,9.40
2019-05-25T15:31:05.463Z,10.53
2019-05-25T15:33:36.486Z,10.13
2019-05-25T15:36:07.380Z,9.80
2019-05-25T15:38:37.639Z,10.48
2019-05-25T15:41:08.317Z,10.13
2019-05-25T15:43:39.093Z,9.98
2019-05-25T15:46:09.914Z,9.90
2019-05-25T15:48:40.729Z,9.48
2019-05-25T15:51:12.644Z,9.95
2019-05-25T15:53:43.550Z,10.25
2019-05-25T15:56:14.440Z,9.75
2019-05-25T15:58:45.130Z,10.53
2019-05-25T16:01:15.964Z,10.95
2019-05-25T16:03:46.885Z,10.43
2019-05-25T16:06:17.652Z,11.50
2019-05-25T16:08:48.730Z,10.32
2019-05-25T16:11:19.649Z,11.38
2019-05-25T16:13:50.644Z,11.30
2019-05-25T16:16:29.687Z,10.50
2019-05-25T16:18:53.550Z,10.80
2019-05-25T16:21:24.336Z,11.03
2019-05-25T16:23:55.025Z,12.00
2019-05-25T16:26:25.781Z,11.43
2019-05-25T16:28:56.623Z,11.60
2019-05-25T16:31:27.473Z,12.35
2019-05-25T16:33:58.149Z,13.15
2019-05-25T16:36:29.003Z,13.35
2019-05-25T16:38:59.971Z,13.25
2019-05-25T16:41:30.724Z,14.18
2019-05-25T16:44:01.651Z,12.95
2019-05-25T16:46:32.405Z,13.88
2019-05-25T16:49:03.288Z,14.47
2019-05-25T16:51:34.001Z,13.45
2019-05-25T16:54:04.954Z,13.75
2019-05-25T16:56:35.759Z,12.58
2019-05-25T16:59:06.716Z,13.53
2019-05-25T17:01:47.674Z,12.95
2019-05-25T17:04:09.846Z,12.60
2019-05-25T17:06:40.639Z,13.75
2019-05-25T17:09:11.438Z,12.13
2019-05-25T17:11:42.209Z,13.15
2019-05-25T17:14:12.903Z,12.78
2019-05-25T17:16:43.892Z,12.70
2019-05-25T17:19:14.650Z,12.43
2019-05-25T17:21:45.347Z,12.23
2019-05-25T17:24:16.126Z,12.00
2019-05-25T17:26:46.806Z,13.00
2019-05-25T17:29:17.545Z,13.03
2019-05-25T17:31:48.185Z,12.30
2019-05-25T17:34:19.567Z,12.55
2019-05-25T17:36:50.364Z,13.03
2019-05-25T17:39:21.403Z,12.65
2019-05-25T17:41:52.333Z,12.20
2019-05-25T17:44:23.348Z,12.18
2019-05-25T17:46:54.201Z,11.78
2019-05-25T17:49:24.881Z,12.25
2019-05-25T17:51:55.696Z,11.95
2019-05-25T17:54:26.755Z,10.88
2019-05-25T17:56:58.921Z,12.10
2019-05-25T17:59:30.032Z,11.55
2019-05-25T18:02:00.893Z,11.53
2019-05-25T18:04:31.791Z,11.05
2019-05-25T18:07:02.927Z,11.50
2019-05-25T18:09:33.696Z,10.90
2019-05-25T18:12:04.597Z,11.10
2019-05-25T18:14:35.582Z,11.15
2019-05-25T18:17:06.431Z,10.88
2019-05-25T18:19:37.256Z,11.70
2019-05-25T18:22:08.114Z,11.05
2019-05-25T18:24:38.886Z,10.80
2019-05-25T18:27:09.714Z,11.73
2019-05-25T18:29:40.535Z,10.28
2019-05-25T18:32:11.322Z,11.33
2019-05-25T18:34:42.444Z,11.15
2019-05-25T18:37:14.391Z,10.95
2019-05-25T18:39:45.293Z,10.53
2019-05-25T18:42:16.258Z,11.90
2019-05-25T18:44:47.175Z,10.68
2019-05-25T18:47:18.053Z,10.58
2019-05-25T18:49:48.839Z,11.08
2019-05-25T18:52:19.774Z,10.95
2019-05-25T18:54:51.020Z,10.80
2019-05-25T18:57:22.001Z,13.50
2019-05-25T18:59:52.849Z,14.15
2019-05-25T19:02:23.654Z,15.18
2019-05-25T19:04:59.409Z,12.93
2019-05-25T19:07:26.507Z,13.30
2019-05-25T19:09:57.195Z,13.08
2019-05-25T19:12:27.900Z,13.15
2019-05-25T19:14:58.872Z,11.75
2019-05-25T19:17:29.564Z,12.93
2019-05-25T19:20:00.522Z,13.13
2019-05-25T19:22:31.381Z,14.15
2019-05-25T19:25:02.225Z,14.20
2019-05-25T19:27:32.997Z,14.23
2019-05-25T19:30:03.686Z,14.30
2019-05-25T19:32:34.373Z,14.53
2019-05-25T19:35:05.767Z,14.23
2019-05-25T19:37:36.565Z,14.28
2019-05-25T19:40:09.341Z,14.20
2019-05-25T19:42:40.314Z,14.87
2019-05-25T19:45:11.095Z,14.65
2019-05-25T19:47:42.074Z,15.25
2019-05-25T19:50:13.000Z,15.30
2019-05-25T19:52:43.695Z,16.02
2019-05-25T19:55:14.772Z,16.12
2019-05-25T19:57:45.699Z,15.90
2019-05-25T20:00:16.558Z,17.10
2019-05-25T20:02:47.705Z,15.70
2019-05-25T20:05:18.552Z,16.73
2019-05-25T20:07:49.369Z,16.17
2019-05-25T20:10:20.118Z,15.65
2019-05-25T20:12:50.990Z,15.68
2019-05-25T20:15:21.881Z,16.37
2019-05-25T20:17:52.674Z,14.38
2019-05-25T20:20:23.351Z,15.63
2019-05-25T20:22:54.128Z,15.38
2019-05-25T20:25:24.793Z,15.85
2019-05-25T20:27:55.578Z,16.05
2019-05-25T20:30:26.340Z,15.65
2019-05-25T20:32:57.020Z,15.25
2019-05-25T20:35:33.151Z,14.13
2019-05-25T20:37:59.913Z,14.70
2019-05-25T20:40:30.776Z,15.98
2019-05-25T21:04:42.023Z,13.93
2019-05-25T21:07:21.795Z,13.62
2019-05-25T21:09:52.681Z,13.40
2019-05-25T21:12:23.449Z,14.65
2019-05-25T21:14:54.341Z,14.40
2019-05-25T21:17:25.040Z,13.72
2019-05-25T21:19:55.718Z,13.85
2019-05-25T21:22:26.615Z,14.28
2019-05-25T21:24:57.287Z,14.90
2019-05-25T21:27:28.084Z,14.85
2019-05-25T21:29:58.949Z,14.10
2019-05-25T21:32:29.796Z,14.60
2019-05-25T21:35:00.579Z,14.40
2019-05-25T21:37:31.327Z,13.90
2019-05-25T21:40:01.983Z,14.18
2019-05-25T21:42:32.761Z,14.45
2019-05-25T21:45:03.443Z,15.32
2019-05-25T21:47:34.139Z,14.95
2019-05-25T21:50:04.817Z,13.88
2019-05-25T21:52:35.499Z,14.00
2019-05-25T21:55:06.483Z,14.50
2019-05-25T21:57:37.126Z,13.65
2019-05-25T22:00:11.550Z,14.20
2019-05-25T22:02:45.231Z,15.03
2019-05-25T22:05:16.425Z,14.40
2019-05-25T22:07:47.585Z,14.07
2019-05-25T22:10:18.552Z,14.50
2019-05-25T22:12:49.345Z,14.28
2019-05-25T22:15:21.608Z,14.78
2019-05-25T22:17:52.504Z,15.00
2019-05-25T22:20:26.595Z,14.75
2019-05-25T22:22:57.744Z,14.98
2019-05-25T22:25:29.317Z,14.23
2019-05-25T22:28:00.333Z,14.18
2019-05-25T22:30:32.172Z,14.73
2019-05-25T22:33:03.071Z,13.88
2019-05-25T22:35:33.959Z,14.40
2019-05-25T22:38:07.527Z,14.70
2019-05-25T22:40:38.958Z,15.63
2019-05-25T22:43:09.837Z,15.48
2019-05-25T22:45:42.191Z,15.32
2019-05-25T22:48:13.237Z,15.40
2019-05-25T22:50:44.483Z,16.00
2019-05-25T22:53:15.659Z,17.25
2019-05-25T22:55:46.477Z,16.00
2019-05-25T22:58:17.247Z,17.23
2019-05-25T23:00:48.218Z,16.75
2019-05-25T23:03:18.992Z,16.97
2019-05-25T23:05:49.940Z,17.70
2019-05-25T23:08:20.898Z,17.02
2019-05-25T23:10:52.074Z,17.05
2019-05-25T23:13:22.873Z,17.07
2019-05-25T23:15:53.849Z,17.15
2019-05-25T23:18:24.690Z,16.00
2019-05-25T23:20:55.426Z,17.37
2019-05-25T23:23:26.212Z,18.92
2019-05-25T23:25:57.315Z,20.77
2019-05-25T23:28:28.211Z,21.23
2019-05-25T23:30:58.928Z,19.42
2019-05-25T23:33:29.784Z,21.27
2019-05-25T23:36:00.495Z,20.57
2019-05-25T23:38:31.251Z,18.55
2019-05-25T23:41:02.039Z,21.23
2019-05-25T23:43:32.817Z,17.60
2019-05-25T23:46:03.641Z,18.20
2019-05-25T23:48:34.425Z,18.95
2019-05-25T23:51:05.432Z,18.70
2019-05-25T23:53:36.251Z,18.40
2019-05-25T23:56:07.052Z,17.62
2019-05-25T23:58:37.707Z,18.35
